Willebroek, Belgium
Current Conditions -  °F | °C
As of 5:20 PM on Friday 24 Oct 2014 (Local Time) from EBAW Reporting Station
Broken Clouds Broken Clouds  
Wind Chill: 55°   Ceiling: 1600
Heat Index: 55°   Visibility: 6mi
Dew Point: 52°   Wind: 8mph
Humidity: 88%   Direction: 180°S
Pressure: 30.03"   Gusts: NA
Location:  51.06°N, 4.36°E
Report Text: EBAW 241520Z 18007KT 9999 FEW010 BKN016 13/11 Q1017 TEMPO 4500 -DZ BKN008
Loading
Personal Weather Stations






























Interactive Weather Map
Tropical Storm Tracking
New forecast layout! Learn more

10-Day Weather Forecast

Advertisements
Track Severe Weather on mobile